Time;durP1;ratioP1;P1;durP2;ratioP2;P2;SDS_P1;SDS_P2;PMS_P1;PMS_P2;Temp;Humidity;BMP_temperature;BMP_pressure;BME280_temperature;BME280_humidity;BME280_pressure;Samples;Min_cycle;Max_cycle;Signal;HPM_P1;HPM_P2
2022/04/28 00:00:12;;;;;;;1.30;0.50;;;;;;;19.65;32.60;102747.88;16126645;19;129808;-58
2022/04/28 00:05:35;;;;;;;4.30;0.90;;;;;;;19.64;32.33;102751.72;16130836;19;130521;-57
2022/04/28 00:10:56;;;;;;;2.47;0.70;;;;;;;19.59;32.63;102751.47;16127091;19;130668;-58
2022/04/28 00:16:18;;;;;;;1.48;0.63;;;;;;;19.58;32.60;102747.00;16125495;19;130643;-58
2022/04/28 00:21:40;;;;;;;1.70;0.73;;;;;;;19.56;32.48;102751.06;16129591;19;129531;-57
2022/04/28 00:27:02;;;;;;;1.70;0.73;;;;;;;19.52;32.68;102740.34;16125278;19;129990;-57
2022/04/28 00:32:24;;;;;;;2.75;0.70;;;;;;;19.50;32.22;102733.31;16122303;19;129251;-58
2022/04/28 00:37:45;;;;;;;2.10;0.65;;;;;;;19.49;32.37;102731.59;16124634;19;130787;-58
2022/04/28 00:43:19;;;;;;;1.60;0.43;;;;;;;19.46;32.68;102738.44;16128213;19;130082;-58
2022/04/28 00:54:23;;;;;;;3.53;0.80;;;;;;;19.40;32.25;102739.25;16123001;19;130085;-59
2022/04/28 00:59:46;;;;;;;1.55;0.60;;;;;;;19.37;32.73;102740.53;16127834;19;130676;-71
2022/04/28 01:05:09;;;;;;;2.67;0.93;;;;;;;19.34;32.39;102735.38;16128936;19;129639;-66
2022/04/28 01:10:31;;;;;;;4.43;0.98;;;;;;;19.32;32.48;102743.03;16125479;19;129768;-58
2022/04/28 01:15:54;;;;;;;2.85;0.82;;;;;;;19.31;32.62;102732.16;16120140;19;129831;-65
2022/04/28 01:21:15;;;;;;;2.08;0.77;;;;;;;19.29;32.46;102737.94;16127346;19;129318;-67
2022/04/28 01:26:39;;;;;;;2.08;0.70;;;;;;;19.28;32.36;102735.34;16126359;19;131650;-68
2022/04/28 01:32:01;;;;;;;3.00;0.70;;;;;;;19.24;32.37;102737.69;16124127;19;129499;-67
2022/04/28 01:37:25;;;;;;;1.75;0.63;;;;;;;19.21;32.53;102738.97;16126842;19;130480;-63
2022/04/28 01:42:47;;;;;;;2.00;0.85;;;;;;;19.21;32.29;102749.19;16126662;19;129589;-71
2022/04/28 01:48:09;;;;;;;1.65;0.85;;;;;;;19.18;32.46;102753.22;16136169;19;129929;-64
2022/04/28 01:59:11;;;;;;;1.65;0.65;;;;;;;19.15;32.24;102739.75;16143033;19;129498;-59
2022/04/28 02:04:33;;;;;;;3.30;0.93;;;;;;;19.15;32.05;102748.06;16140085;19;129910;-57
2022/04/28 02:09:57;;;;;;;3.63;0.70;;;;;;;19.12;32.52;102742.94;16140367;19;130069;-58
2022/04/28 02:15:19;;;;;;;3.10;0.60;;;;;;;19.12;32.39;102739.28;16135936;19;129465;-57
2022/04/28 02:20:40;;;;;;;2.63;0.93;;;;;;;19.12;32.32;102747.63;16139211;19;130702;-58
2022/04/28 02:26:02;;;;;;;1.58;0.80;;;;;;;19.12;32.32;102747.63;16140589;19;130004;-58
2022/04/28 02:31:24;;;;;;;1.63;0.70;;;;;;;19.08;32.49;102748.03;16138801;19;130603;-58
2022/04/28 02:36:46;;;;;;;3.45;0.77;;;;;;;19.07;32.55;102746.34;16136095;19;129065;-58
2022/04/28 02:42:08;;;;;;;1.13;0.57;;;;;;;19.07;32.12;102739.91;16139746;19;129841;-58
2022/04/28 02:47:30;;;;;;;1.35;0.55;;;;;;;19.04;32.60;102748.63;16139346;19;130122;-58
2022/04/28 02:52:52;;;;;;;1.50;0.50;;;;;;;19.04;32.30;102735.66;16136772;19;129603;-59
2022/04/28 02:58:13;;;;;;;2.67;0.70;;;;;;;19.01;32.52;102740.75;16135121;19;129532;-59
2022/04/28 03:03:35;;;;;;;5.18;0.90;;;;;;;18.98;32.23;102730.91;16139744;19;130087;-58
2022/04/28 03:14:37;;;;;;;2.05;0.82;;;;;;;18.95;32.58;102724.91;16130647;19;129940;-58
2022/04/28 03:19:59;;;;;;;3.00;0.55;;;;;;;18.94;32.28;102728.75;16136267;19;130179;-58
2022/04/28 03:25:21;;;;;;;1.90;0.77;;;;;;;18.93;32.36;102741.78;16133610;19;130109;-58
2022/04/28 03:30:43;;;;;;;1.73;0.50;;;;;;;18.93;32.44;102750.09;16134102;19;129674;-58
2022/04/28 03:36:50;;;;;;;1.30;0.70;;;;;;;18.90;32.37;102747.72;16134443;19;130612;-58
2022/04/28 03:41:47;;;;;;;1.70;0.60;;;;;;;18.88;32.64;102741.50;16131940;19;130012;-58
2022/04/28 03:47:09;;;;;;;3.00;0.80;;;;;;;18.87;32.15;102745.34;16129635;19;129894;-58
2022/04/28 03:52:31;;;;;;;1.88;0.70;;;;;;;18.86;32.11;102749.19;16130191;19;129894;-58
2022/04/28 03:57:53;;;;;;;2.20;0.50;;;;;;;18.85;32.47;102750.22;16131992;19;129415;-58
2022/04/28 04:03:15;;;;;;;1.90;0.55;;;;;;;18.83;32.39;102744.06;16131500;19;130262;-58
2022/04/28 04:08:38;;;;;;;2.53;0.80;;;;;;;18.80;32.27;102744.47;16130020;19;130104;-57
2022/04/28 04:13:59;;;;;;;1.83;0.70;;;;;;;18.81;32.53;102748.94;16125345;19;130044;-57
2022/04/28 04:19:21;;;;;;;3.35;0.88;;;;;;;18.79;32.18;102746.34;16130689;19;130405;-58
2022/04/28 04:24:43;;;;;;;2.90;0.68;;;;;;;18.77;32.44;102754.88;16131738;19;129819;-58
2022/04/28 04:35:46;;;;;;;1.45;0.73;;;;;;;18.75;32.62;102761.72;16129547;19;131386;-57
2022/04/28 04:41:11;;;;;;;1.55;0.70;;;;;;;18.73;32.45;102761.88;16131928;19;130235;-58
2022/04/28 04:46:32;;;;;;;1.08;0.60;;;;;;;18.72;32.20;102768.50;16127292;19;130810;-57
2022/04/28 04:51:54;;;;;;;1.25;0.60;;;;;;;18.71;32.33;102777.88;16128995;19;130545;-58
2022/04/28 04:57:16;;;;;;;2.15;0.90;;;;;;;18.71;32.18;102775.09;16128404;19;130116;-58
2022/04/28 05:02:38;;;;;;;1.73;0.50;;;;;;;18.70;32.14;102778.94;16127073;19;129943;-58
2022/04/28 05:08:00;;;;;;;3.22;0.63;;;;;;;18.68;32.18;102783.84;16125434;19;129905;-58
2022/04/28 05:13:21;;;;;;;2.17;0.60;;;;;;;18.69;32.23;102795.78;16124289;19;129521;-57
2022/04/28 05:18:43;;;;;;;1.25;0.50;;;;;;;18.68;32.22;102797.69;16126423;19;129334;-58
2022/04/28 05:24:05;;;;;;;2.13;0.70;;;;;;;18.67;32.35;102804.31;16138643;19;131280;-58
2022/04/28 05:29:27;;;;;;;3.00;1.10;;;;;;;18.72;32.25;102815.63;16142759;19;131199;-59
2022/04/28 05:34:49;;;;;;;1.15;0.80;;;;;;;18.79;32.34;102814.84;16136400;19;130015;-59
2022/04/28 05:40:12;;;;;;;7.07;1.02;;;;;;;18.86;32.15;102821.28;16136141;19;130996;-59
2022/04/28 05:45:46;;;;;;;5.82;1.08;;;;;;;18.92;32.31;102831.59;16133786;19;130504;-59
2022/04/28 05:51:09;;;;;;;3.38;0.93;;;;;;;19.01;32.22;102848.94;16139624;19;130213;-59
2022/04/28 05:56:30;;;;;;;4.03;1.20;;;;;;;19.05;31.88;102831.69;16137003;19;130673;-59
2022/04/28 06:01:52;;;;;;;4.82;0.95;;;;;;;19.14;32.06;102839.84;16126970;19;130765;-59
2022/04/28 06:07:16;;;;;;;2.92;0.82;;;;;;;19.20;31.96;102847.34;16125791;19;130015;-59
2022/04/28 06:12:38;;;;;;;3.40;1.00;;;;;;;19.26;31.54;102854.03;16125268;19;129913;-60
2022/04/28 06:17:59;;;;;;;4.57;1.10;;;;;;;19.29;31.42;102857.25;16140264;19;130398;-59
2022/04/28 06:23:21;;;;;;;2.83;0.82;;;;;;;19.32;31.83;102859.59;16138432;19;129961;-60
2022/04/28 06:28:43;;;;;;;3.60;0.98;;;;;;;19.38;31.19;102864.34;16139227;19;130076;-59
2022/04/28 06:34:05;;;;;;;3.28;1.02;;;;;;;19.44;31.58;102861.84;16132875;19;129485;-59
2022/04/28 06:39:26;;;;;;;3.50;0.95;;;;;;;19.50;31.58;102877.66;16138439;19;130590;-59
2022/04/28 06:44:48;;;;;;;1.90;0.80;;;;;;;19.54;31.21;102878.97;16145222;19;129902;-59
2022/04/28 06:50:10;;;;;;;1.98;0.80;;;;;;;19.58;31.20;102879.41;16144919;19;129616;-59
2022/04/28 06:55:32;;;;;;;4.15;0.95;;;;;;;19.63;31.27;102886.06;16137981;19;129482;-59
2022/04/28 07:00:54;;;;;;;2.70;0.90;;;;;;;19.68;31.14;102899.31;16140535;19;128955;-59
2022/04/28 07:06:16;;;;;;;2.70;1.00;;;;;;;19.73;31.21;102902.34;16137450;19;129385;-59
2022/04/28 07:11:38;;;;;;;2.58;1.00;;;;;;;19.78;30.70;102901.72;16139543;19;129856;-58
2022/04/28 07:17:00;;;;;;;1.45;0.85;;;;;;;19.81;30.56;102904.94;16140583;19;129468;-59
2022/04/28 07:22:22;;;;;;;3.25;0.90;;;;;;;19.85;30.82;102913.72;16140738;19;129389;-59
2022/04/28 07:27:43;;;;;;;2.50;0.93;;;;;;;19.89;30.75;102925.28;16140054;19;129754;-59
2022/04/28 07:33:06;;;;;;;5.90;1.20;;;;;;;19.91;30.96;102932.34;16139163;19;129537;-59
2022/04/28 07:38:29;;;;;;;2.80;0.90;;;;;;;19.93;30.46;102933.00;16142269;19;129410;-59
2022/04/28 07:43:50;;;;;;;4.55;1.13;;;;;;;19.94;30.37;102931.06;16138417;19;130398;-59
2022/04/28 07:49:13;;;;;;;2.42;0.95;;;;;;;19.94;30.33;102940.25;16139099;19;129412;-59
2022/04/28 07:54:34;;;;;;;3.92;1.20;;;;;;;19.96;30.56;102940.06;16135430;19;129397;-59
2022/04/28 07:59:56;;;;;;;2.92;1.10;;;;;;;19.95;30.19;102941.97;16135740;19;130609;-59
2022/04/28 08:05:18;;;;;;;3.88;1.27;;;;;;;19.95;30.54;102941.97;16137787;19;130517;-59
2022/04/28 08:10:40;;;;;;;2.17;1.08;;;;;;;19.95;30.35;102953.09;16137031;19;129765;-59
2022/04/28 08:16:02;;;;;;;4.45;1.00;;;;;;;19.97;30.11;102947.34;16128549;19;130317;-59
2022/04/28 08:21:24;;;;;;;3.25;1.00;;;;;;;19.96;30.19;102951.19;16140160;19;129478;-59
2022/04/28 08:26:46;;;;;;;3.80;1.10;;;;;;;19.94;30.51;102956.91;16139769;19;129458;-59
2022/04/28 08:32:09;;;;;;;3.05;1.10;;;;;;;19.92;30.44;102964.63;16135681;19;129384;-58
2022/04/28 08:37:31;;;;;;;2.63;1.10;;;;;;;19.90;30.16;102963.97;16137678;19;129400;-58
2022/04/28 08:42:54;;;;;;;2.83;1.05;;;;;;;19.89;30.13;102953.03;16136971;19;130574;-59
2022/04/28 08:48:16;;;;;;;3.05;1.33;;;;;;;19.88;30.33;102945.81;16136430;19;129991;-58
2022/04/28 08:53:38;;;;;;;2.35;1.00;;;;;;;19.86;29.93;102967.38;16132431;19;129497;-59
2022/04/28 08:59:00;;;;;;;4.32;1.48;;;;;;;19.82;29.79;102958.56;16146288;19;130001;-58
2022/04/28 09:04:23;;;;;;;3.33;1.30;;;;;;;19.83;29.77;102951.94;16147208;19;130075;-59
2022/04/28 09:09:46;;;;;;;4.15;1.38;;;;;;;19.83;29.88;102958.38;16148970;19;129629;-58
2022/04/28 09:15:12;;;;;;;1.77;0.95;;;;;;;19.86;30.24;102954.31;16146250;19;129659;-58
2022/04/28 09:20:36;;;;;;;1.33;0.95;;;;;;;19.83;30.09;102947.28;16148391;19;129603;-59
2022/04/28 09:26:03;;;;;;;2.50;0.95;;;;;;;19.83;29.81;102949.16;16146362;19;129431;-59
2022/04/28 09:31:25;;;;;;;2.63;1.00;;;;;;;19.83;30.30;102940.84;16148892;19;129714;-59
2022/04/28 09:37:06;;;;;;;2.70;1.17;;;;;;;19.81;30.17;102940.22;16150420;19;129437;-58
2022/04/28 09:42:39;;;;;;;3.15;1.10;;;;;;;19.82;29.72;102947.44;16149697;19;129582;-58
2022/04/28 09:48:03;;;;;;;3.08;0.80;;;;;;;19.80;29.89;102938.50;16150813;19;129373;-58
2022/04/28 09:53:26;;;;;;;5.28;1.17;;;;;;;19.78;30.23;102933.13;16147427;19;129014;-59
2022/04/28 09:58:49;;;;;;;2.85;1.08;;;;;;;19.77;30.40;102933.34;16147201;19;128900;-59
2022/04/28 10:04:11;;;;;;;3.67;1.02;;;;;;;19.74;30.10;102929.06;16146660;19;129215;-58
2022/04/28 10:09:34;;;;;;;7.07;1.92;;;;;;;19.69;30.13;102924.09;16146377;19;129515;-60
2022/04/28 10:14:59;;;;;;;9.90;1.90;;;;;;;19.66;29.98;102916.19;16140566;19;130379;-59
2022/04/28 10:20:35;;;;;;;3.23;1.50;;;;;;;19.69;29.87;102915.78;16141700;19;129614;-59
2022/04/28 10:37:42;;;;;;;7.20;1.70;;;;;;;19.73;30.28;102915.38;16141891;19;129048;-59
2022/04/28 10:43:04;;;;;;;3.58;1.60;;;;;;;19.71;30.36;102909.16;16145485;19;129657;-59
2022/04/28 10:48:32;;;;;;;4.20;1.40;;;;;;;19.74;30.48;102911.53;16145404;19;129767;-59
2022/04/28 10:54:06;;;;;;;5.55;1.30;;;;;;;19.73;30.56;102899.59;16140050;19;129631;-59
2022/04/28 10:59:46;;;;;;;5.22;1.73;;;;;;;19.67;30.64;102901.25;16137276;19;129479;-59
2022/04/28 11:05:30;;;;;;;5.25;1.58;;;;;;;19.73;30.34;102895.94;16142587;19;129405;-59
2022/04/28 11:11:12;;;;;;;4.43;1.48;;;;;;;19.75;30.55;102891.03;16143542;19;128756;-59
2022/04/28 11:16:35;;;;;;;2.92;1.50;;;;;;;19.73;30.49;102887.59;16138992;19;129487;-59
2022/04/28 11:21:59;;;;;;;3.30;1.70;;;;;;;19.74;30.38;102890.19;16142515;19;131112;-59
2022/04/28 11:27:24;;;;;;;6.13;1.53;;;;;;;19.74;30.43;102884.63;16143090;19;129769;-59
2022/04/28 11:32:57;;;;;;;3.47;1.80;;;;;;;19.74;30.44;102886.53;16143761;19;129617;-59
2022/04/28 11:38:32;;;;;;;4.63;1.80;;;;;;;19.75;30.20;102879.91;16141666;19;129174;-59
2022/04/28 11:43:53;;;;;;;4.82;1.50;;;;;;;19.74;30.64;102883.75;16141332;19;130286;-59
2022/04/28 11:49:17;;;;;;;6.28;1.33;;;;;;;19.74;30.58;102880.97;16141754;19;129663;-59
2022/04/28 11:54:39;;;;;;;4.60;1.80;;;;;;;19.72;30.76;102880.31;16136884;19;129506;-59
2022/04/28 12:00:01;;;;;;;4.30;1.80;;;;;;;19.72;30.44;102869.22;16140317;19;128918;-60
2022/04/28 12:05:27;;;;;;;3.60;2.10;;;;;;;19.69;30.55;102865.78;16142259;19;129362;-59
2022/04/28 12:22:13;;;;;;;3.88;1.27;;;;;;;19.68;30.78;102852.13;16138989;19;129549;-59
2022/04/28 12:27:44;;;;;;;3.83;1.77;;;;;;;19.72;30.65;102852.56;16140282;19;129962;-59
2022/04/28 12:33:08;;;;;;;4.13;1.75;;;;;;;19.71;30.75;102850.84;16132728;19;129266;-60
2022/04/28 12:38:34;;;;;;;4.82;1.88;;;;;;;19.70;30.55;102852.78;16137658;19;129549;-59
2022/04/28 12:44:00;;;;;;;5.65;2.70;;;;;;;19.68;30.71;102858.53;16135386;19;129965;-59
2022/04/28 12:49:23;;;;;;;3.80;1.80;;;;;;;19.68;30.89;102846.56;16136986;19;129167;-59
2022/04/28 12:54:45;;;;;;;4.68;2.50;;;;;;;19.67;30.56;102845.72;16134552;19;129182;-59
2022/04/28 13:00:09;;;;;;;4.30;1.90;;;;;;;19.68;30.85;102841.88;16136226;19;129674;-59
2022/04/28 13:05:31;;;;;;;4.30;2.13;;;;;;;19.66;30.40;102838.47;16134672;19;130128;-59
2022/04/28 13:10:56;;;;;;;6.10;2.40;;;;;;;19.63;30.55;102836.09;16133813;19;129053;-59
2022/04/28 13:16:18;;;;;;;4.15;2.20;;;;;;;19.64;30.41;102834.16;16130101;19;129752;-59
2022/04/28 13:21:41;;;;;;;3.85;2.10;;;;;;;19.64;30.64;102828.59;16131488;19;129640;-60
2022/04/28 13:27:03;;;;;;;4.75;2.70;;;;;;;19.62;30.77;102814.94;16132277;19;129529;-60
2022/04/28 13:32:24;;;;;;;7.28;2.50;;;;;;;19.60;30.58;102817.06;16133877;19;129770;-59
2022/04/28 13:37:46;;;;;;;3.50;2.10;;;;;;;19.60;30.60;102814.28;16127781;19;130614;-59
2022/04/28 13:43:08;;;;;;;5.15;2.50;;;;;;;19.59;30.73;102815.34;16136233;19;129776;-59
2022/04/28 13:48:31;;;;;;;4.22;2.72;;;;;;;19.57;30.23;102809.13;16148409;19;129449;-59
2022/04/28 13:53:53;;;;;;;8.55;2.75;;;;;;;19.56;30.59;102809.34;16146221;19;129554;-59
2022/04/28 13:59:15;;;;;;;9.52;2.63;;;;;;;19.56;30.51;102804.66;16149016;19;129707;-59
2022/04/28 14:04:37;;;;;;;5.57;2.33;;;;;;;19.58;30.58;102804.44;16143965;19;129279;-59
2022/04/28 14:10:00;;;;;;;6.13;2.60;;;;;;;19.57;30.57;102803.56;16141042;19;129400;-59
2022/04/28 14:15:21;;;;;;;5.05;2.30;;;;;;;19.59;30.19;102804.22;16141378;19;129204;-59
2022/04/28 14:20:43;;;;;;;5.72;2.72;;;;;;;19.60;30.24;102786.50;16146385;19;129227;-59
2022/04/28 14:26:06;;;;;;;5.97;2.58;;;;;;;19.60;30.40;102788.44;16146667;19;130662;-59
2022/04/28 14:31:28;;;;;;;8.90;2.78;;;;;;;19.60;30.35;102778.19;16146563;19;129676;-59
2022/04/28 14:37:10;;;;;;;7.35;2.05;;;;;;;19.58;30.60;102780.31;16135321;19;130339;-59
2022/04/28 14:42:32;;;;;;;3.75;2.65;;;;;;;19.57;30.25;102773.03;16142830;19;129441;-59
2022/04/28 14:47:54;;;;;;;8.45;2.08;;;;;;;19.57;30.41;102767.47;16138878;19;130525;-59
2022/04/28 14:53:39;;;;;;;4.88;2.33;;;;;;;19.56;30.39;102771.34;16137247;19;129491;-59
2022/04/28 14:59:00;;;;;;;5.73;2.30;;;;;;;19.56;30.39;102771.34;16139393;19;129290;-60
2022/04/28 15:04:22;;;;;;;5.60;2.25;;;;;;;19.57;30.31;102773.03;16142780;19;128908;-59
2022/04/28 15:09:46;;;;;;;6.80;2.45;;;;;;;19.56;30.24;102764.94;16143583;19;129523;-59
2022/04/28 15:15:10;;;;;;;6.05;1.80;;;;;;;19.60;30.53;102778.19;16136931;19;129600;-60
2022/04/28 15:20:32;;;;;;;6.50;2.20;;;;;;;19.59;30.45;102779.25;16143421;19;129358;-59
2022/04/28 15:25:54;;;;;;;5.47;2.20;;;;;;;19.58;30.06;102776.69;16143722;19;129240;-59
2022/04/28 15:31:16;;;;;;;4.13;2.53;;;;;;;19.56;30.24;102763.03;16137449;19;130378;-59
2022/04/28 15:36:39;;;;;;;6.15;2.47;;;;;;;19.57;30.04;102761.09;16131965;19;129955;-59
2022/04/28 15:42:01;;;;;;;4.82;2.20;;;;;;;19.55;30.12;102764.09;16140866;19;129518;-60
2022/04/28 15:47:23;;;;;;;6.82;2.15;;;;;;;19.55;30.37;102763.22;16140819;19;130091;-60
2022/04/28 15:52:45;;;;;;;6.90;2.42;;;;;;;19.55;30.82;102758.53;16140066;19;130462;-61
2022/04/28 15:58:08;;;;;;;6.65;2.17;;;;;;;19.57;31.27;102761.94;16134982;19;129255;-60
2022/04/28 16:03:32;;;;;;;8.25;3.13;;;;;;;19.60;31.89;102772.63;16140173;19;132564;-61
2022/04/28 16:08:54;;;;;;;5.60;3.25;;;;;;;19.62;32.42;102756.63;16138557;19;130520;-61
2022/04/28 16:14:16;;;;;;;6.13;2.63;;;;;;;19.62;32.21;102764.94;16131631;19;129162;-60
2022/04/28 16:19:37;;;;;;;6.28;2.80;;;;;;;19.62;32.41;102764.13;16139452;19;129722;-61
2022/04/28 16:25:00;;;;;;;6.35;3.15;;;;;;;19.60;32.42;102767.06;16139176;19;131254;-60
2022/04/28 16:30:22;;;;;;;5.78;3.15;;;;;;;19.58;32.05;102762.81;16137759;19;129128;-59
2022/04/28 16:35:44;;;;;;;7.70;2.78;;;;;;;19.56;31.88;102754.69;16134707;19;129457;-59
2022/04/28 16:41:07;;;;;;;6.25;2.78;;;;;;;19.52;31.59;102754.22;16132882;19;129154;-59
2022/04/28 16:46:30;;;;;;;7.75;2.33;;;;;;;19.49;31.52;102756.56;16131332;19;129426;-59
2022/04/28 16:51:57;;;;;;;5.35;2.35;;;;;;;19.48;32.08;102757.63;16127941;19;129874;-58
2022/04/28 16:57:19;;;;;;;23.50;2.80;;;;;;;19.48;31.73;102769.63;16130135;19;129885;-58
2022/04/28 17:08:22;;;;;;;9.18;2.60;;;;;;;19.50;32.15;102766.63;16135323;19;129430;-58
2022/04/28 17:13:44;;;;;;;10.15;2.80;;;;;;;19.52;32.17;102770.06;16128383;19;130190;-47
2022/04/28 17:19:07;;;;;;;7.75;2.15;;;;;;;19.56;31.91;102776.91;16137691;19;130634;-53
2022/04/28 17:24:29;;;;;;;5.15;1.90;;;;;;;19.55;32.00;102775.19;16146161;19;129626;-56
2022/04/28 17:29:51;;;;;;;8.32;1.73;;;;;;;19.55;31.85;102780.75;16139862;19;130355;-48
2022/04/28 17:35:13;;;;;;;7.95;2.13;;;;;;;19.53;31.86;102777.31;16142551;19;130411;-55
2022/04/28 17:40:34;;;;;;;7.70;1.88;;;;;;;19.54;31.32;102779.03;16142370;19;129162;-59
2022/04/28 17:45:56;;;;;;;6.65;1.67;;;;;;;19.52;31.36;102770.88;16142516;19;130462;-56
2022/04/28 17:51:18;;;;;;;6.80;1.92;;;;;;;19.53;31.66;102771.75;16134343;19;129746;-52
2022/04/28 18:02:27;;;;;;;6.95;1.65;;;;;;;19.53;31.55;102777.31;16146943;19;130337;-58
2022/04/28 18:07:50;;;;;;;7.63;1.92;;;;;;;19.50;31.62;102775.81;16142609;19;129716;-56
2022/04/28 18:13:13;;;;;;;9.45;1.67;;;;;;;19.49;31.27;102784.34;16138716;19;130738;-52
2022/04/28 18:18:36;;;;;;;7.72;1.38;;;;;;;19.50;31.49;102780.50;16137278;19;129043;-58
2022/04/28 18:23:57;;;;;;;15.82;1.85;;;;;;;19.49;31.21;102798.22;16140275;19;130486;-58
2022/04/28 18:29:20;;;;;;;5.30;1.63;;;;;;;19.50;31.46;102799.94;16141814;19;129392;-57
2022/04/28 18:34:42;;;;;;;7.88;1.58;;;;;;;19.49;31.66;102796.31;16145791;19;129381;-60
2022/04/28 18:45:44;;;;;;;7.75;1.60;;;;;;;19.48;31.19;102804.81;16144492;19;128781;-56
2022/04/28 18:51:06;;;;;;;3.45;1.65;;;;;;;19.47;31.58;102803.97;16139985;19;130208;-58
2022/04/28 18:56:28;;;;;;;8.38;1.50;;;;;;;19.46;31.18;102809.72;16131831;19;129816;-59
2022/04/28 19:01:50;;;;;;;2.90;1.30;;;;;;;19.45;31.46;102811.66;16139076;19;130957;-56
2022/04/28 19:07:13;;;;;;;3.90;1.50;;;;;;;19.45;31.05;102819.09;16143087;19;129716;-55
2022/04/28 19:12:35;;;;;;;7.95;1.55;;;;;;;19.42;31.57;102833.41;16141244;19;129829;-52
2022/04/28 19:17:57;;;;;;;5.97;1.58;;;;;;;19.40;31.18;102836.38;16133751;19;130093;-57
2022/04/28 19:23:19;;;;;;;5.07;1.42;;;;;;;19.47;31.70;102845.63;16138461;19;129581;-58
2022/04/28 19:28:41;;;;;;;6.93;1.48;;;;;;;19.71;31.05;102843.38;16132754;19;128994;-56
2022/04/28 19:34:02;;;;;;;3.92;1.35;;;;;;;20.10;30.84;102850.19;16133259;19;130521;-54
2022/04/28 19:39:26;;;;;;;6.93;1.50;;;;;;;20.50;30.29;102860.50;16130500;19;130278;-59
2022/04/28 19:44:47;;;;;;;5.18;1.73;;;;;;;20.82;30.25;102866.31;16137137;19;130095;-56
2022/04/28 19:50:11;;;;;;;3.88;1.20;;;;;;;21.07;30.21;102868.44;16132875;19;130918;-58
2022/04/28 19:55:33;;;;;;;6.45;1.33;;;;;;;21.20;29.89;102870.38;16129743;19;130972;-52
2022/04/28 20:00:55;;;;;;;10.27;1.77;;;;;;;21.30;30.10;102875.47;16126138;19;130451;-54
2022/04/28 20:06:17;;;;;;;12.60;1.55;;;;;;;21.28;30.07;102867.34;16133703;19;129937;-58
2022/04/28 20:11:40;;;;;;;5.78;1.60;;;;;;;21.22;29.68;102863.50;16129756;19;130438;-53
2022/04/28 20:17:03;;;;;;;5.70;1.42;;;;;;;21.14;30.22;102862.88;16131665;19;130579;-55
2022/04/28 20:22:25;;;;;;;6.88;1.33;;;;;;;21.03;30.28;102867.19;16129527;19;130213;-54
2022/04/28 20:27:47;;;;;;;6.53;1.33;;;;;;;20.92;30.19;102867.84;16126527;19;131894;-53
2022/04/28 20:33:10;;;;;;;4.20;1.30;;;;;;;20.82;30.34;102857.97;16127534;19;130502;-55
2022/04/28 20:38:35;;;;;;;5.78;1.60;;;;;;;20.71;30.37;102866.94;16127423;19;130059;-58
2022/04/28 20:43:56;;;;;;;6.22;2.13;;;;;;;20.60;30.79;102868.44;16129922;19;131768;-52
2022/04/28 20:49:18;;;;;;;9.07;1.30;;;;;;;20.51;30.49;102867.78;16119156;19;130615;-48
2022/04/28 20:54:40;;;;;;;3.30;1.38;;;;;;;20.41;30.62;102859.00;16120800;19;130048;-56
2022/04/28 21:00:04;;;;;;;6.05;1.40;;;;;;;20.34;31.03;102859.00;16133568;19;129287;-53
2022/04/28 21:05:27;;;;;;;5.28;1.60;;;;;;;20.27;30.98;102847.00;16135986;19;129785;-55
2022/04/28 21:10:49;;;;;;;4.63;1.25;;;;;;;20.21;31.06;102854.25;16133777;19;129344;-56
2022/04/28 21:16:11;;;;;;;3.63;1.20;;;;;;;20.16;31.18;102854.03;16128117;19;130163;-54
2022/04/28 21:21:33;;;;;;;5.00;1.35;;;;;;;20.09;31.20;102864.25;16132909;19;129015;-55
2022/04/28 21:26:56;;;;;;;3.67;1.45;;;;;;;20.03;31.05;102862.34;16133157;19;129125;-55
2022/04/28 21:32:19;;;;;;;2.60;1.20;;;;;;;19.98;31.19;102874.88;16126231;19;129099;-53
2022/04/28 21:37:42;;;;;;;4.18;1.33;;;;;;;19.94;31.22;102868.03;16127885;19;129319;-55
2022/04/28 21:43:06;;;;;;;4.20;1.27;;;;;;;19.89;31.51;102880.81;16132304;19;129681;-53
2022/04/28 21:48:29;;;;;;;3.83;1.27;;;;;;;19.83;31.11;102888.94;16132748;19;129242;-54
2022/04/28 21:54:11;;;;;;;4.13;0.80;;;;;;;19.79;31.35;102904.28;16132093;19;130625;-56
2022/04/28 21:59:35;;;;;;;3.90;1.20;;;;;;;19.77;31.40;102894.47;16121695;19;130123;-53
2022/04/28 22:16:17;;;;;;;3.03;1.08;;;;;;;19.65;31.64;102883.94;16139081;19;130177;-56
2022/04/28 22:21:39;;;;;;;4.25;1.13;;;;;;;19.64;31.69;102879.44;16143374;19;129394;-53
2022/04/28 22:27:02;;;;;;;3.03;1.13;;;;;;;19.60;31.45;102878.13;16143847;19;129708;-55
2022/04/28 22:32:24;;;;;;;3.63;1.27;;;;;;;19.56;31.41;102874.06;16137739;19;129940;-55
2022/04/28 22:37:46;;;;;;;3.63;1.25;;;;;;;19.53;31.49;102878.09;16138128;19;129564;-53
2022/04/28 22:43:08;;;;;;;2.55;1.17;;;;;;;19.52;31.83;102881.94;16140492;19;129670;-54
2022/04/28 22:48:30;;;;;;;2.25;1.00;;;;;;;19.52;31.79;102881.09;16141368;19;131397;-55
2022/04/28 22:53:52;;;;;;;3.25;1.20;;;;;;;19.55;32.00;102883.47;16140023;19;130115;-56
2022/04/28 22:59:14;;;;;;;3.45;1.08;;;;;;;19.56;32.16;102887.97;16137565;19;130384;-55
2022/04/28 23:04:36;;;;;;;4.38;1.30;;;;;;;19.56;31.91;102892.63;16141710;19;129913;-57
2022/04/28 23:09:57;;;;;;;2.20;1.00;;;;;;;19.53;31.78;102882.81;16142314;19;130073;-55
2022/04/28 23:15:19;;;;;;;3.20;1.10;;;;;;;19.50;31.80;102877.66;16136090;19;129098;-56
2022/04/28 23:20:44;;;;;;;3.70;1.13;;;;;;;19.47;32.04;102878.06;16139927;19;129559;-56
2022/04/28 23:26:07;;;;;;;2.67;1.13;;;;;;;19.45;31.72;102882.94;16139149;19;130761;-54
2022/04/28 23:31:29;;;;;;;6.68;1.20;;;;;;;19.43;31.97;102876.78;16140940;19;129862;-54
2022/04/28 23:42:31;;;;;;;5.22;1.50;;;;;;;19.36;32.14;102874.78;16139855;19;129697;-54
2022/04/28 23:47:54;;;;;;;4.05;1.48;;;;;;;19.35;31.68;102875.00;16138711;19;130740;-56
2022/04/28 23:58:56;;;;;;;3.88;1.02;;;;;;;19.30;31.71;102863.66;16128909;19;129405;-55
